createdAt,value
2018-02-23T00:01:16.159Z,99410.21
2018-02-23T00:03:43.728Z,99409.39
2018-02-23T00:06:11.483Z,99404.92
2018-02-23T00:08:39.043Z,99405.10
2018-02-23T00:11:06.559Z,99397.17
2018-02-23T00:13:34.142Z,99399.49
2018-02-23T00:16:01.664Z,99407.32
2018-02-23T00:18:29.220Z,99405.56
2018-02-23T00:20:56.744Z,99407.19
2018-02-23T00:23:24.327Z,99393.63
2018-02-23T00:25:51.859Z,99400.33
2018-02-23T00:28:19.432Z,99398.77
2018-02-23T00:30:46.954Z,99396.09
2018-02-23T00:33:14.516Z,99400.44
2018-02-23T00:35:42.067Z,99399.39
2018-02-23T00:38:09.620Z,99402.03
2018-02-23T00:40:37.162Z,99386.31
2018-02-23T00:43:04.760Z,99388.94
2018-02-23T00:45:32.320Z,99392.88
2018-02-23T00:47:59.844Z,99389.98
2018-02-23T00:50:27.404Z,99379.89
2018-02-23T00:52:54.937Z,99391.25
2018-02-23T00:55:24.640Z,99398.84
2018-02-23T00:57:52.163Z,99388.09
2018-02-23T01:00:19.741Z,99399.39
2018-02-23T01:02:47.293Z,99382.97
2018-02-23T01:05:14.861Z,99385.76
2018-02-23T01:07:42.448Z,99383.04
2018-02-23T01:10:09.971Z,99381.58
2018-02-23T01:12:38.771Z,99380.68
2018-02-23T01:15:06.470Z,99380.08
2018-02-23T01:17:34.144Z,99383.70
2018-02-23T01:20:01.752Z,99376.26
2018-02-23T01:22:29.706Z,99373.19
2018-02-23T01:24:57.280Z,99380.39
2018-02-23T01:27:24.807Z,99378.77
2018-02-23T01:29:52.372Z,99382.84
2018-02-23T01:32:19.892Z,99378.50
2018-02-23T01:34:47.645Z,99377.54
2018-02-23T01:37:15.179Z,99370.22
2018-02-23T01:39:42.755Z,99377.44
2018-02-23T01:42:10.326Z,99372.03
2018-02-23T01:44:37.844Z,99377.20
2018-02-23T01:47:05.403Z,99377.22
2018-02-23T01:49:32.994Z,99371.08
2018-02-23T01:52:00.583Z,99359.84
2018-02-23T01:54:28.114Z,99364.97
2018-02-23T01:56:55.681Z,99360.61
2018-02-23T01:59:23.264Z,99365.06
2018-02-23T02:01:50.840Z,99364.26
2018-02-23T02:04:18.357Z,99361.45
2018-02-23T02:06:45.925Z,99351.58
2018-02-23T02:09:13.555Z,99351.66
2018-02-23T02:11:42.018Z,99348.39
2018-02-23T02:14:09.583Z,99344.70
2018-02-23T02:16:37.120Z,99347.70
2018-02-23T02:19:04.751Z,99353.34
2018-02-23T02:21:32.359Z,99341.38
2018-02-23T02:23:59.941Z,99350.14
2018-02-23T02:26:27.514Z,99350.02
2018-02-23T02:28:55.068Z,99356.50
2018-02-23T02:31:22.640Z,99345.58
2018-02-23T02:33:50.187Z,99337.20
2018-02-23T02:36:17.760Z,99333.88
2018-02-23T02:38:45.303Z,99341.08
2018-02-23T02:41:12.873Z,99338.57
2018-02-23T02:43:40.399Z,99339.56
2018-02-23T02:46:07.970Z,99339.34
2018-02-23T02:48:35.544Z,99330.55
2018-02-23T02:51:03.096Z,99338.24
2018-02-23T02:53:30.652Z,99336.56
2018-02-23T02:55:58.179Z,99335.05
2018-02-23T02:58:25.762Z,99327.16
2018-02-23T03:00:53.297Z,99313.22
2018-02-23T03:03:20.843Z,99322.41
2018-02-23T03:05:48.400Z,99323.92
2018-02-23T03:08:15.924Z,99323.52
2018-02-23T03:10:43.528Z,99332.66
2018-02-23T03:13:11.074Z,99331.84
2018-02-23T03:15:38.664Z,99327.50
2018-02-23T03:18:06.199Z,99328.99
2018-02-23T03:20:33.723Z,99330.91
2018-02-23T03:23:01.415Z,99323.03
2018-02-23T03:25:28.940Z,99332.09
2018-02-23T03:27:56.494Z,99323.83
2018-02-23T03:30:24.011Z,99325.90
2018-02-23T03:32:51.568Z,99331.95
2018-02-23T03:35:19.104Z,99317.23
2018-02-23T03:37:46.660Z,99327.68
2018-02-23T03:40:14.186Z,99319.16
2018-02-23T03:42:42.308Z,99315.73
2018-02-23T03:45:09.864Z,99305.05
2018-02-23T03:47:37.388Z,99303.37
2018-02-23T03:50:06.961Z,99299.91
2018-02-23T03:52:34.493Z,99300.69
2018-02-23T03:55:02.083Z,99292.05
2018-02-23T03:57:29.599Z,99300.32
2018-02-23T03:59:57.176Z,99299.61
2018-02-23T04:02:24.710Z,99291.22
2018-02-23T04:04:52.240Z,99302.53
2018-02-23T04:07:19.817Z,99306.00
2018-02-23T04:09:47.337Z,99309.63
2018-02-23T04:12:14.913Z,99304.82
2018-02-23T04:14:42.758Z,99272.83
2018-02-23T04:17:10.315Z,99312.78
2018-02-23T04:19:37.835Z,99300.96
2018-02-23T04:22:05.420Z,99308.95
2018-02-23T04:24:32.984Z,99300.08
2018-02-23T04:27:00.503Z,99309.61
2018-02-23T04:29:28.136Z,99306.63
2018-02-23T04:31:55.655Z,99318.62
2018-02-23T04:34:23.219Z,99323.27
2018-02-23T04:36:50.756Z,99316.66
2018-02-23T04:39:18.336Z,99320.02
2018-02-23T04:41:45.886Z,99327.55
2018-02-23T04:44:13.416Z,99320.42
2018-02-23T04:46:40.964Z,99323.84
2018-02-23T04:49:08.501Z,99328.07
2018-02-23T04:51:36.059Z,99327.72
2018-02-23T04:54:03.587Z,99331.13
2018-02-23T04:56:31.144Z,99329.78
2018-02-23T04:58:58.704Z,99333.59
2018-02-23T05:01:26.281Z,99329.88
2018-02-23T05:03:53.835Z,99345.59
2018-02-23T05:06:21.422Z,99344.16
2018-02-23T05:08:48.956Z,99344.94
2018-02-23T05:11:16.487Z,99333.32
2018-02-23T05:13:44.111Z,99344.42
2018-02-23T05:16:11.639Z,99346.20
2018-02-23T05:18:39.224Z,99341.14
2018-02-23T05:21:06.747Z,99330.13
2018-02-23T05:23:34.317Z,99321.50
2018-02-23T05:26:01.837Z,99340.91
2018-02-23T05:28:29.461Z,99324.57
2018-02-23T05:30:57.012Z,99339.51
2018-02-23T05:33:24.576Z,99319.78
2018-02-23T05:35:52.139Z,99328.76
2018-02-23T05:38:27.234Z,99338.22
2018-02-23T05:40:54.763Z,99339.07
2018-02-23T05:43:22.319Z,99336.89
2018-02-23T05:45:49.941Z,99342.47
2018-02-23T05:48:17.567Z,99330.26
2018-02-23T05:50:48.474Z,99335.38
2018-02-23T05:53:16.549Z,99334.98
2018-02-23T05:55:44.063Z,99340.82
2018-02-23T05:58:11.625Z,99324.61
2018-02-23T06:00:39.144Z,99330.63
2018-02-23T06:03:06.714Z,99328.91
2018-02-23T06:05:34.237Z,99322.50
2018-02-23T06:08:01.788Z,99332.72
2018-02-23T06:10:29.399Z,99332.91
2018-02-23T06:12:56.969Z,99337.14
2018-02-23T06:15:26.067Z,99332.94
2018-02-23T06:17:59.329Z,99342.29
2018-02-23T06:20:28.540Z,99335.75
2018-02-23T06:22:56.080Z,99335.83
2018-02-23T06:25:23.641Z,99336.38
2018-02-23T06:27:51.229Z,99340.60
2018-02-23T06:30:18.862Z,99346.91
2018-02-23T06:32:46.389Z,99334.11
2018-02-23T06:35:14.000Z,99340.52
2018-02-23T06:37:41.532Z,99342.74
2018-02-23T06:40:09.105Z,99341.80
2018-02-23T06:42:36.647Z,99355.44
2018-02-23T06:45:04.197Z,99355.45
2018-02-23T06:47:31.756Z,99355.63
2018-02-23T06:49:59.280Z,99355.83
2018-02-23T06:52:26.838Z,99365.35
2018-02-23T06:54:54.379Z,99369.58
2018-02-23T06:57:21.964Z,99361.64
2018-02-23T06:59:49.505Z,99361.20
2018-02-23T07:02:17.107Z,99339.33
2018-02-23T07:04:45.025Z,99360.48
2018-02-23T07:07:12.560Z,99348.92
2018-02-23T07:09:40.116Z,99347.69
2018-02-23T07:12:07.680Z,99356.68
2018-02-23T07:14:35.244Z,99364.82
2018-02-23T07:17:02.807Z,99359.72
2018-02-23T07:19:30.377Z,99364.28
2018-02-23T07:21:57.907Z,99373.01
2018-02-23T07:24:25.497Z,99369.78
2018-02-23T07:26:53.039Z,99371.50
2018-02-23T07:29:20.560Z,99364.33
2018-02-23T07:31:48.121Z,99360.81
2018-02-23T07:34:15.674Z,99355.73
2018-02-23T07:36:43.245Z,99358.22
2018-02-23T07:39:10.796Z,99371.00
2018-02-23T07:41:38.385Z,99362.81
2018-02-23T07:44:05.927Z,99376.89
2018-02-23T07:46:33.488Z,99371.33
2018-02-23T07:49:01.009Z,99378.27
2018-02-23T07:51:28.612Z,99367.56
2018-02-23T07:53:56.258Z,99374.33
2018-02-23T07:56:24.667Z,99373.87
2018-02-23T07:58:52.252Z,99368.83
2018-02-23T08:01:19.801Z,99375.56
2018-02-23T08:03:47.372Z,99378.89
2018-02-23T08:06:15.615Z,99387.06
2018-02-23T08:08:43.178Z,99387.68
2018-02-23T08:11:10.715Z,99382.69
2018-02-23T08:13:38.268Z,99388.45
2018-02-23T08:16:05.912Z,99388.45
2018-02-23T08:18:33.510Z,99387.29
2018-02-23T08:21:01.092Z,99372.58
2018-02-23T08:23:28.664Z,99382.58
2018-02-23T08:25:56.211Z,99391.95
2018-02-23T08:28:23.910Z,99383.63
2018-02-23T08:30:51.448Z,99386.34
2018-02-23T08:33:18.977Z,99367.47
2018-02-23T08:35:46.539Z,99397.34
2018-02-23T08:38:14.061Z,99377.59
2018-02-23T08:40:41.612Z,99386.13
2018-02-23T08:43:09.258Z,99389.48
2018-02-23T08:45:36.817Z,99374.99
2018-02-23T08:48:04.357Z,99386.80
2018-02-23T08:50:31.918Z,99379.11
2018-02-23T08:52:59.441Z,99372.62
2018-02-23T08:55:27.066Z,99374.98
2018-02-23T08:57:54.603Z,99383.23
2018-02-23T09:00:26.929Z,99389.69
2018-02-23T09:02:54.481Z,99390.65
2018-02-23T09:05:22.011Z,99380.52
2018-02-23T09:07:49.577Z,99375.55
2018-02-23T09:10:17.108Z,99388.05
2018-02-23T09:12:44.677Z,99393.94
2018-02-23T09:15:12.243Z,99392.31
2018-02-23T09:17:39.808Z,99392.06
2018-02-23T09:20:07.340Z,99405.81
2018-02-23T09:22:34.927Z,99396.45
2018-02-23T09:25:02.469Z,99389.98
2018-02-23T09:27:30.052Z,99398.15
2018-02-23T09:29:57.573Z,99397.79
2018-02-23T09:32:36.971Z,99400.59
2018-02-23T09:35:04.529Z,99396.11
2018-02-23T09:37:32.064Z,99397.15
2018-02-23T09:39:59.611Z,99397.34
2018-02-23T09:42:27.131Z,99392.84
2018-02-23T09:44:54.718Z,99392.25
2018-02-23T09:47:22.258Z,99398.74
2018-02-23T09:49:49.831Z,99409.80
2018-02-23T09:52:17.350Z,99404.38
2018-02-23T09:54:44.926Z,99408.06
2018-02-23T09:57:12.529Z,99409.61
2018-02-23T09:59:40.144Z,99409.06
2018-02-23T10:02:07.676Z,99391.97
2018-02-23T10:04:35.196Z,99401.77
2018-02-23T10:07:03.496Z,99407.14
2018-02-23T10:09:31.108Z,99383.56
2018-02-23T10:11:58.679Z,99394.66
2018-02-23T10:14:26.220Z,99397.13
2018-02-23T10:16:53.796Z,99381.70
2018-02-23T10:19:21.342Z,99379.78
2018-02-23T10:21:48.932Z,99383.73
2018-02-23T10:24:16.495Z,99380.89
2018-02-23T10:26:44.080Z,99377.54
2018-02-23T10:29:11.625Z,99378.95
2018-02-23T10:31:39.155Z,99379.27
2018-02-23T10:34:06.732Z,99374.29
2018-02-23T10:36:36.401Z,99379.03
2018-02-23T10:39:06.875Z,99378.20
2018-02-23T10:41:35.295Z,99378.88
2018-02-23T10:44:04.237Z,99382.66
2018-02-23T10:46:32.827Z,99380.77
2018-02-23T10:49:00.760Z,99371.45
2018-02-23T10:51:29.803Z,99375.47
2018-02-23T10:53:58.128Z,99390.16
2018-02-23T10:56:27.093Z,99386.41
2018-02-23T10:58:55.859Z,99379.84
2018-02-23T11:01:27.092Z,99374.36
2018-02-23T11:03:57.000Z,99366.02
2018-02-23T11:06:26.480Z,99364.45
2018-02-23T11:08:54.152Z,99355.04
2018-02-23T11:11:23.635Z,99359.57
2018-02-23T11:13:53.030Z,99358.28
2018-02-23T11:16:22.669Z,99341.73
2018-02-23T11:18:51.919Z,99345.77
2018-02-23T11:21:21.765Z,99353.02
2018-02-23T11:23:51.482Z,99358.73
2018-02-23T11:26:21.552Z,99339.11
2018-02-23T11:28:49.663Z,99344.08
2018-02-23T11:31:17.744Z,99346.00
2018-02-23T11:33:48.081Z,99342.05
2018-02-23T11:36:17.024Z,99329.84
2018-02-23T11:38:45.343Z,99339.75
2018-02-23T11:41:12.997Z,99339.75
2018-02-23T11:43:42.942Z,99333.73
2018-02-23T11:46:13.878Z,99332.60
2018-02-23T11:48:42.775Z,99331.68
2018-02-23T11:51:11.130Z,99317.67
2018-02-23T11:53:42.647Z,99317.06
2018-02-23T11:56:12.729Z,99323.15
2018-02-23T11:58:40.515Z,99321.92
2018-02-23T12:01:09.769Z,99327.36
2018-02-23T12:03:40.842Z,99322.48
2018-02-23T12:06:08.750Z,99333.28
2018-02-23T12:08:39.561Z,99320.83
2018-02-23T12:11:09.460Z,99320.83
2018-02-23T12:13:38.252Z,99318.28
2018-02-23T12:16:07.961Z,99315.35
2018-02-23T12:18:37.155Z,99308.61
2018-02-23T12:21:06.374Z,99307.91
2018-02-23T12:23:34.039Z,99310.47
2018-02-23T12:26:01.604Z,99306.13
2018-02-23T12:28:29.132Z,99301.22
2018-02-23T12:30:56.655Z,99307.91
2018-02-23T12:33:24.205Z,99302.20
2018-02-23T12:35:51.737Z,99298.95
2018-02-23T12:38:19.303Z,99303.12
2018-02-23T12:40:46.949Z,99293.68
2018-02-23T12:43:14.506Z,99287.97
2018-02-23T12:45:42.035Z,99280.61
2018-02-23T12:48:09.628Z,99294.81
2018-02-23T12:50:37.184Z,99288.09
2018-02-23T12:53:04.765Z,99282.66
2018-02-23T12:55:32.748Z,99267.77
2018-02-23T12:58:00.320Z,99272.00
2018-02-23T13:00:27.843Z,99261.05
2018-02-23T13:02:55.369Z,99275.95
2018-02-23T13:05:23.410Z,99271.83
2018-02-23T13:07:50.951Z,99261.11
2018-02-23T13:10:19.373Z,99269.60
2018-02-23T13:12:47.055Z,99272.23
2018-02-23T13:15:19.512Z,99257.58
2018-02-23T13:17:47.111Z,99246.05
2018-02-23T13:20:14.843Z,99253.42
2018-02-23T13:22:42.383Z,99255.94
2018-02-23T13:25:09.976Z,99246.34
2018-02-23T13:27:37.497Z,99235.17
2018-02-23T13:30:05.020Z,99238.08
2018-02-23T13:32:32.661Z,99241.28
2018-02-23T13:35:00.229Z,99231.09
2018-02-23T13:37:27.783Z,99241.98
2018-02-23T13:39:55.370Z,99240.52
2018-02-23T13:42:22.927Z,99240.64
2018-02-23T13:44:50.484Z,99237.07
2018-02-23T13:47:18.032Z,99238.50
2018-02-23T13:49:45.560Z,99240.05
2018-02-23T13:52:13.144Z,99233.79
2018-02-23T13:54:41.570Z,99235.19
2018-02-23T13:57:09.389Z,99225.22
2018-02-23T13:59:42.448Z,99238.30
2018-02-23T14:02:16.861Z,99234.84
2018-02-23T14:04:53.484Z,99241.02
2018-02-23T14:07:32.057Z,99232.03
2018-02-23T14:10:04.202Z,99227.80
2018-02-23T14:12:36.289Z,99229.88
2018-02-23T14:15:14.876Z,99233.15
2018-02-23T14:17:47.331Z,99231.84
2018-02-23T14:20:21.881Z,99233.26
2018-02-23T14:22:53.714Z,99238.61
2018-02-23T14:25:27.831Z,99238.81
2018-02-23T14:28:03.778Z,99228.66
2018-02-23T14:30:37.194Z,99231.75
2018-02-23T14:33:09.698Z,99239.77
2018-02-23T14:38:19.692Z,99228.86
2018-02-23T14:40:53.745Z,99238.05
2018-02-23T14:43:28.996Z,99234.59
2018-02-23T14:46:03.336Z,99239.23
2018-02-23T14:48:47.343Z,99235.48
2018-02-23T14:51:22.814Z,99229.02
2018-02-23T14:53:57.524Z,99238.62
2018-02-23T14:56:31.855Z,99234.46
2018-02-23T14:59:03.930Z,99227.70
2018-02-23T15:01:40.223Z,99230.30
2018-02-23T15:06:52.069Z,99238.16
2018-02-23T15:09:23.931Z,99256.97
2018-02-23T15:11:59.926Z,99245.79
2018-02-23T15:14:33.339Z,99249.98
2018-02-23T15:17:06.474Z,99249.31
2018-02-23T15:19:40.183Z,99247.29
2018-02-23T15:22:13.733Z,99229.17
2018-02-23T15:24:47.260Z,99231.45
2018-02-23T15:27:21.451Z,99238.51
2018-02-23T15:29:53.930Z,99239.92
2018-02-23T15:32:42.378Z,99245.00
2018-02-23T15:35:21.900Z,99236.20
2018-02-23T15:40:30.359Z,99234.20
2018-02-23T15:43:04.140Z,99260.95
2018-02-23T15:45:39.074Z,99248.89
2018-02-23T15:48:11.647Z,99255.86
2018-02-23T15:50:53.623Z,99237.38
2018-02-23T15:53:27.206Z,99244.65
2018-02-23T15:56:02.266Z,99257.86
2018-02-23T15:58:46.016Z,99251.00
2018-02-23T16:01:20.307Z,99251.38
2018-02-23T16:03:53.012Z,99242.34
2018-02-23T16:06:26.944Z,99252.95
2018-02-23T16:08:58.403Z,99238.91
2018-02-23T16:11:31.427Z,99259.69
2018-02-23T16:14:05.367Z,99258.36
2018-02-23T16:16:37.830Z,99249.11
2018-02-23T16:19:14.892Z,99240.27
2018-02-23T16:24:28.706Z,99251.39
2018-02-23T16:27:01.390Z,99245.83
2018-02-23T16:29:36.637Z,99242.03
2018-02-23T16:32:09.824Z,99247.14
2018-02-23T16:34:43.822Z,99258.70
2018-02-23T16:37:15.944Z,99261.41
2018-02-23T16:39:55.002Z,99270.27
2018-02-23T16:42:33.462Z,99280.38
2018-02-23T16:45:05.976Z,99289.63
2018-02-23T16:47:40.761Z,99289.97
2018-02-23T16:50:12.301Z,99284.13
2018-02-23T16:52:40.466Z,99278.63
2018-02-23T16:55:10.753Z,99279.06
2018-02-23T16:57:40.215Z,99272.65
2018-02-23T17:00:11.023Z,99274.19
2018-02-23T17:02:39.552Z,99292.57
2018-02-23T17:05:08.342Z,99277.37
2018-02-23T17:07:36.784Z,99280.14
2018-02-23T17:10:06.125Z,99285.20
2018-02-23T17:12:34.780Z,99281.09
2018-02-23T17:15:04.682Z,99270.58
2018-02-23T17:17:33.579Z,99273.44
2018-02-23T17:20:03.934Z,99272.91
2018-02-23T17:22:31.775Z,99268.19
2018-02-23T17:25:00.800Z,99275.83
2018-02-23T17:27:31.592Z,99274.73
2018-02-23T17:30:03.507Z,99270.69
2018-02-23T17:32:32.769Z,99270.80
2018-02-23T17:35:02.375Z,99275.55
2018-02-23T17:37:30.950Z,99276.30
2018-02-23T17:40:01.581Z,99286.34
2018-02-23T17:42:31.815Z,99282.88
2018-02-23T17:45:04.759Z,99290.45
2018-02-23T17:47:44.312Z,99301.09
2018-02-23T17:50:13.501Z,99303.05
2018-02-23T17:52:41.496Z,99295.84
2018-02-23T17:55:09.691Z,99288.36
2018-02-23T17:57:37.727Z,99305.84
2018-02-23T18:00:05.287Z,99306.71
2018-02-23T18:02:32.823Z,99306.28
2018-02-23T18:05:00.370Z,99310.26
2018-02-23T18:07:27.892Z,99312.78
2018-02-23T18:09:55.440Z,99323.55
2018-02-23T18:12:23.693Z,99329.84
2018-02-23T18:14:51.243Z,99342.80
2018-02-23T18:17:19.204Z,99332.59
2018-02-23T18:19:47.259Z,99333.91
2018-02-23T18:22:14.854Z,99331.17
2018-02-23T18:24:42.380Z,99338.66
2018-02-23T18:27:09.950Z,99333.62
2018-02-23T18:29:38.876Z,99328.84
2018-02-23T18:32:06.796Z,99331.61
2018-02-23T18:34:34.332Z,99330.80
2018-02-23T18:37:01.880Z,99322.50
2018-02-23T18:39:29.449Z,99335.36
2018-02-23T18:41:57.181Z,99319.69
2018-02-23T18:44:24.758Z,99309.59
2018-02-23T18:46:52.360Z,99316.53
2018-02-23T18:49:20.834Z,99322.69
2018-02-23T18:51:48.448Z,99318.84
2018-02-23T18:54:16.836Z,99310.44
2018-02-23T18:56:44.569Z,99309.33
2018-02-23T18:59:12.832Z,99310.05
2018-02-23T19:01:40.442Z,99304.43
2018-02-23T19:04:08.019Z,99305.75
2018-02-23T19:06:35.552Z,99308.63
2018-02-23T19:09:03.083Z,99299.35
2018-02-23T19:11:30.665Z,99309.05
2018-02-23T19:13:58.240Z,99311.55
2018-02-23T19:16:25.839Z,99311.27
2018-02-23T19:18:53.691Z,99305.30
2018-02-23T19:21:21.246Z,99296.27
2018-02-23T19:23:48.847Z,99296.62
2018-02-23T19:26:16.399Z,99318.03
2018-02-23T19:28:43.930Z,99315.70
2018-02-23T19:31:11.620Z,99320.56
2018-02-23T19:33:39.290Z,99312.84
2018-02-23T19:36:06.871Z,99308.72
2018-02-23T19:38:34.428Z,99313.63
2018-02-23T19:41:02.030Z,99323.11
2018-02-23T19:43:29.598Z,99318.97
2018-02-23T19:45:57.147Z,99328.94
2018-02-23T19:48:24.691Z,99325.75
2018-02-23T19:50:52.420Z,99319.81
2018-02-23T19:53:20.860Z,99322.77
2018-02-23T19:55:48.383Z,99308.05
2018-02-23T19:58:15.948Z,99319.64
2018-02-23T20:00:43.479Z,99323.97
2018-02-23T20:03:11.036Z,99316.97
2018-02-23T20:05:38.595Z,99308.64
2018-02-23T20:08:06.138Z,99316.37
2018-02-23T20:10:33.704Z,99318.95
2018-02-23T20:13:01.233Z,99298.80
2018-02-23T20:15:28.826Z,99307.77
2018-02-23T20:17:56.438Z,99309.53
2018-02-23T20:20:23.968Z,99311.03
2018-02-23T20:22:51.491Z,99315.39
2018-02-23T20:25:20.206Z,99314.13
2018-02-23T20:27:48.013Z,99318.39
2018-02-23T20:30:16.009Z,99311.05
2018-02-23T20:32:43.600Z,99311.73
2018-02-23T20:35:11.164Z,99318.66
2018-02-23T20:37:38.737Z,99314.45
2018-02-23T20:40:07.021Z,99312.14
2018-02-23T20:42:35.224Z,99317.77
2018-02-23T20:45:03.083Z,99311.09
2018-02-23T20:47:30.760Z,99306.28
2018-02-23T20:49:58.303Z,99293.42
2018-02-23T20:52:25.888Z,99311.42
2018-02-23T20:54:53.790Z,99284.87
2018-02-23T20:57:21.434Z,99320.63
2018-02-23T20:59:48.984Z,99320.38
2018-02-23T21:02:16.782Z,99319.33
2018-02-23T21:04:44.408Z,99314.63
2018-02-23T21:07:11.936Z,99311.51
2018-02-23T21:09:39.709Z,99311.11
2018-02-23T21:12:07.547Z,99314.67
2018-02-23T21:14:35.096Z,99321.44
2018-02-23T21:17:02.699Z,99308.89
2018-02-23T21:19:30.259Z,99324.75
2018-02-23T21:21:57.922Z,99318.02
2018-02-23T21:24:26.086Z,99326.00
2018-02-23T21:26:54.292Z,99332.27
2018-02-23T21:29:26.012Z,99320.41
2018-02-23T21:31:56.836Z,99322.89
2018-02-23T21:34:26.871Z,99323.99
2018-02-23T21:36:56.046Z,99333.44
2018-02-23T21:39:26.710Z,99291.48
2018-02-23T21:41:57.719Z,99327.07
2018-02-23T21:44:28.184Z,99332.20
2018-02-23T21:46:56.488Z,99333.97
2018-02-23T21:49:25.192Z,99333.91
2018-02-23T21:51:55.381Z,99338.03
2018-02-23T21:54:24.384Z,99344.64
2018-02-23T21:56:52.872Z,99344.69
2018-02-23T21:59:21.320Z,99341.11
2018-02-23T22:01:49.755Z,99336.94
2018-02-23T22:04:17.292Z,99340.29
2018-02-23T22:06:44.894Z,99351.66
2018-02-23T22:09:12.445Z,99354.19
2018-02-23T22:11:41.539Z,99361.89
2018-02-23T22:14:10.905Z,99354.13
2018-02-23T22:16:38.508Z,99350.38
2018-02-23T22:19:06.808Z,99343.88
2018-02-23T22:21:34.991Z,99348.97
2018-02-23T22:24:02.560Z,99355.41
2018-02-23T22:26:30.099Z,99365.97
2018-02-23T22:28:57.676Z,99350.04
2018-02-23T22:31:25.215Z,99343.24
2018-02-23T22:33:52.789Z,99354.89
2018-02-23T22:36:20.325Z,99329.13
2018-02-23T22:38:47.982Z,99329.44
2018-02-23T22:41:15.535Z,99328.06
2018-02-23T22:43:43.077Z,99336.64
2018-02-23T22:46:10.641Z,99337.82
2018-02-23T22:48:38.171Z,99328.16
2018-02-23T22:51:05.724Z,99325.45
2018-02-23T22:53:33.287Z,99330.76
2018-02-23T22:56:00.873Z,99329.70
2018-02-23T22:58:28.403Z,99321.25
2018-02-23T23:00:55.967Z,99322.47
2018-02-23T23:03:24.144Z,99324.70
2018-02-23T23:05:51.670Z,99327.88
2018-02-23T23:08:19.239Z,99317.72
2018-02-23T23:10:46.771Z,99336.80
2018-02-23T23:13:14.335Z,99324.52
2018-02-23T23:15:41.860Z,99324.50
2018-02-23T23:18:09.459Z,99328.81
2018-02-23T23:20:36.994Z,99331.66
2018-02-23T23:23:04.571Z,99339.04
2018-02-23T23:25:32.091Z,99328.66
2018-02-23T23:27:59.679Z,99343.63
2018-02-23T23:30:27.872Z,99336.06
2018-02-23T23:32:55.436Z,99338.35
2018-02-23T23:35:22.975Z,99333.56
2018-02-23T23:37:50.507Z,99328.00
2018-02-23T23:40:18.534Z,99337.81
2018-02-23T23:42:46.442Z,99308.55
2018-02-23T23:45:14.091Z,99334.05
2018-02-23T23:47:42.094Z,99323.89
2018-02-23T23:50:09.965Z,99324.30
2018-02-23T23:52:37.700Z,99321.20
2018-02-23T23:55:05.486Z,99327.42
2018-02-23T23:57:33.042Z,99322.28
